DCUTE EDDE-EDDN
Flight info
| Callsign | DCUTE |
|---|---|
| Flight time | 0h 39m |
| Altitude | 23000 |
| Route | NEVKO DCT TABAT/N0180F030 IFR Q244 PIVIR PIVIR1T |
| Aircraft | B350/L-SBGRW/S |
Departure
| Time | 2026-05-09 12:20 |
|---|---|
| Airport | Erfurt-Weimar Airport (EDDE) |
Arrival
| Time | 2026-05-09 12:59 |
|---|---|
| Airport | Nuremberg Airport (EDDN) |
| Time | Latitude | Longitude | Altitude | Speed | Heading |
|---|---|---|---|---|---|
| 2026-05-09 12:06 | 50.97710 | 10.96001 | 1040 ft | 0 kts | 322° |
| 2026-05-09 12:11 | 50.97722 | 10.95986 | 1040 ft | 3 kts | 323° |
| 2026-05-09 12:11 | 50.97751 | 10.95994 | 1040 ft | 5 kts | 66° |
| 2026-05-09 12:11 | 50.97747 | 10.96073 | 1040 ft | 13 kts | 92° |
| 2026-05-09 12:12 | 50.97731 | 10.96254 | 1040 ft | 18 kts | 101° |
| 2026-05-09 12:12 | 50.97716 | 10.96476 | 1040 ft | 20 kts | 95° |
| 2026-05-09 12:12 | 50.97695 | 10.96709 | 1040 ft | 22 kts | 100° |
| 2026-05-09 12:12 | 50.97675 | 10.96967 | 1040 ft | 23 kts | 95° |
| 2026-05-09 12:13 | 50.97692 | 10.97190 | 1040 ft | 20 kts | 82° |
| 2026-05-09 12:13 | 50.97661 | 10.97341 | 1040 ft | 10 kts | 96° |
| 2026-05-09 12:13 | 50.97663 | 10.97377 | 1040 ft | 0 kts | 79° |
| 2026-05-09 12:17 | 50.97665 | 10.97394 | 1040 ft | 4 kts | 69° |
| 2026-05-09 12:17 | 50.97710 | 10.97435 | 1040 ft | 7 kts | 22° |
| 2026-05-09 12:17 | 50.97716 | 10.97440 | 1040 ft | 0 kts | 38° |
| 2026-05-09 12:18 | 50.97717 | 10.97441 | 1040 ft | 0 kts | 47° |
| 2026-05-09 12:18 | 50.97742 | 10.97485 | 1040 ft | 15 kts | 50° |
| 2026-05-09 12:19 | 50.97812 | 10.97592 | 1040 ft | 15 kts | 33° |
| 2026-05-09 12:19 | 50.97838 | 10.97597 | 1040 ft | 0 kts | 278° |
| 2026-05-09 12:19 | 50.97858 | 10.97368 | 1040 ft | 72 kts | 278° |
| 2026-05-09 12:19 | 50.97939 | 10.96087 | 1154 ft | 146 kts | 276° |
| 2026-05-09 12:20 | 50.97897 | 10.94468 | 1964 ft | 157 kts | 269° |
| 2026-05-09 12:20 | 50.97825 | 10.92547 | 2468 ft | 191 kts | 272° |
| 2026-05-09 12:20 | 50.97641 | 10.90256 | 2499 ft | 228 kts | 250° |
| 2026-05-09 12:20 | 50.96527 | 10.88789 | 2407 ft | 209 kts | 175° |
| 2026-05-09 12:21 | 50.95233 | 10.89703 | 2204 ft | 208 kts | 137° |
| 2026-05-09 12:21 | 50.94697 | 10.91541 | 2355 ft | 179 kts | 83° |
| 2026-05-09 12:21 | 50.94880 | 10.93457 | 2328 ft | 174 kts | 103° |
| 2026-05-09 12:21 | 50.93951 | 10.94609 | 2250 ft | 195 kts | 176° |
| 2026-05-09 12:22 | 50.92561 | 10.94248 | 2050 ft | 213 kts | 189° |
| 2026-05-09 12:22 | 50.91031 | 10.94002 | 1868 ft | 221 kts | 175° |
| 2026-05-09 12:22 | 50.89603 | 10.94664 | 1880 ft | 211 kts | 145° |
| 2026-05-09 12:22 | 50.88636 | 10.96243 | 2087 ft | 192 kts | 113° |
| 2026-05-09 12:23 | 50.88555 | 10.98281 | 2097 ft | 186 kts | 74° |
| 2026-05-09 12:23 | 50.88742 | 11.00342 | 2186 ft | 198 kts | 89° |
| 2026-05-09 12:23 | 50.88661 | 11.02543 | 2557 ft | 200 kts | 95° |
| 2026-05-09 12:23 | 50.88484 | 11.04712 | 3036 ft | 197 kts | 97° |
| 2026-05-09 12:24 | 50.88283 | 11.06779 | 3580 ft | 177 kts | 98° |
| 2026-05-09 12:24 | 50.88089 | 11.08665 | 3421 ft | 173 kts | 98° |
| 2026-05-09 12:24 | 50.87888 | 11.10594 | 3049 ft | 177 kts | 98° |
| 2026-05-09 12:24 | 50.87692 | 11.12462 | 2975 ft | 171 kts | 98° |
| 2026-05-09 12:25 | 50.87492 | 11.14382 | 2991 ft | 183 kts | 98° |
| 2026-05-09 12:25 | 50.87273 | 11.16455 | 2992 ft | 194 kts | 98° |
| 2026-05-09 12:25 | 50.87053 | 11.18536 | 2977 ft | 193 kts | 98° |
| 2026-05-09 12:25 | 50.86829 | 11.20641 | 2972 ft | 191 kts | 98° |
| 2026-05-09 12:26 | 50.86611 | 11.22693 | 2965 ft | 188 kts | 98° |
| 2026-05-09 12:26 | 50.86396 | 11.24714 | 2964 ft | 184 kts | 98° |
| 2026-05-09 12:26 | 50.86185 | 11.26698 | 2958 ft | 183 kts | 98° |
| 2026-05-09 12:26 | 50.85970 | 11.28715 | 2965 ft | 182 kts | 98° |
| 2026-05-09 12:27 | 50.85494 | 11.30546 | 2958 ft | 183 kts | 132° |
| 2026-05-09 12:27 | 50.84417 | 11.31660 | 2975 ft | 184 kts | 150° |
| 2026-05-09 12:27 | 50.83256 | 11.32581 | 2971 ft | 187 kts | 151° |
| 2026-05-09 12:27 | 50.82084 | 11.33479 | 2963 ft | 188 kts | 152° |
| 2026-05-09 12:28 | 50.80895 | 11.34381 | 2960 ft | 188 kts | 152° |
| 2026-05-09 12:28 | 50.79704 | 11.35279 | 2949 ft | 189 kts | 152° |
| 2026-05-09 12:28 | 50.78531 | 11.36161 | 2953 ft | 189 kts | 152° |
| 2026-05-09 12:28 | 50.77334 | 11.37061 | 2951 ft | 189 kts | 152° |
| 2026-05-09 12:29 | 50.76140 | 11.37958 | 2957 ft | 190 kts | 152° |
| 2026-05-09 12:29 | 50.74949 | 11.38853 | 3000 ft | 189 kts | 152° |
| 2026-05-09 12:29 | 50.73777 | 11.39732 | 3114 ft | 185 kts | 152° |
| 2026-05-09 12:29 | 50.72614 | 11.40604 | 3228 ft | 181 kts | 152° |
| 2026-05-09 12:30 | 50.71493 | 11.41445 | 3338 ft | 178 kts | 152° |
| 2026-05-09 12:30 | 50.70375 | 11.42283 | 3453 ft | 175 kts | 152° |
| 2026-05-09 12:30 | 50.68194 | 11.43919 | 3805 ft | 186 kts | 153° |
| 2026-05-09 12:31 | 50.67017 | 11.44801 | 4490 ft | 188 kts | 153° |
| 2026-05-09 12:31 | 50.64721 | 11.46518 | 6080 ft | 179 kts | 155° |
| 2026-05-09 12:31 | 50.63569 | 11.47378 | 6796 ft | 178 kts | 155° |
| 2026-05-09 12:32 | 50.62450 | 11.48214 | 7461 ft | 183 kts | 155° |
| 2026-05-09 12:32 | 50.61306 | 11.49069 | 8188 ft | 185 kts | 155° |
| 2026-05-09 12:32 | 50.60147 | 11.49935 | 8933 ft | 186 kts | 155° |
| 2026-05-09 12:32 | 50.58993 | 11.50795 | 9630 ft | 187 kts | 156° |
| 2026-05-09 12:33 | 50.57814 | 11.51673 | 10302 ft | 189 kts | 156° |
| 2026-05-09 12:33 | 50.56617 | 11.52564 | 10993 ft | 194 kts | 155° |
| 2026-05-09 12:33 | 50.55345 | 11.53224 | 11693 ft | 195 kts | 173° |
| 2026-05-09 12:33 | 50.54006 | 11.53510 | 12399 ft | 196 kts | 174° |
| 2026-05-09 12:34 | 50.52673 | 11.53788 | 13081 ft | 197 kts | 174° |
| 2026-05-09 12:34 | 50.51323 | 11.54068 | 13739 ft | 199 kts | 174° |
| 2026-05-09 12:34 | 50.49943 | 11.54353 | 14381 ft | 201 kts | 174° |
| 2026-05-09 12:34 | 50.48563 | 11.54638 | 14980 ft | 203 kts | 174° |
| 2026-05-09 12:35 | 50.47178 | 11.54923 | 15610 ft | 202 kts | 174° |
| 2026-05-09 12:35 | 50.45802 | 11.55206 | 16257 ft | 199 kts | 174° |
| 2026-05-09 12:35 | 50.44452 | 11.55484 | 16886 ft | 197 kts | 174° |
| 2026-05-09 12:35 | 50.43104 | 11.55759 | 17442 ft | 198 kts | 174° |
| 2026-05-09 12:36 | 50.41770 | 11.55386 | 17955 ft | 196 kts | 210° |
| 2026-05-09 12:36 | 50.40603 | 11.54285 | 18477 ft | 198 kts | 214° |
| 2026-05-09 12:36 | 50.39466 | 11.53082 | 18975 ft | 200 kts | 217° |
| 2026-05-09 12:36 | 50.38305 | 11.51796 | 19467 ft | 203 kts | 217° |
| 2026-05-09 12:37 | 50.37148 | 11.50537 | 19936 ft | 206 kts | 216° |
| 2026-05-09 12:37 | 50.35956 | 11.49272 | 20394 ft | 208 kts | 216° |
| 2026-05-09 12:37 | 50.34757 | 11.48029 | 20824 ft | 211 kts | 215° |
| 2026-05-09 12:37 | 50.33505 | 11.46761 | 21272 ft | 214 kts | 214° |
| 2026-05-09 12:38 | 50.32254 | 11.45524 | 21694 ft | 216 kts | 214° |
| 2026-05-09 12:38 | 50.30976 | 11.44288 | 22110 ft | 219 kts | 213° |
| 2026-05-09 12:38 | 50.29842 | 11.42752 | 22507 ft | 218 kts | 233° |
| 2026-05-09 12:38 | 50.28807 | 11.40986 | 22928 ft | 221 kts | 227° |
| 2026-05-09 12:39 | 50.27661 | 11.39303 | 23100 ft | 237 kts | 224° |
| 2026-05-09 12:39 | 50.26345 | 11.37536 | 23121 ft | 258 kts | 222° |
| 2026-05-09 12:39 | 50.24926 | 11.35726 | 23118 ft | 274 kts | 221° |
| 2026-05-09 12:39 | 50.23423 | 11.33857 | 23127 ft | 275 kts | 220° |
| 2026-05-09 12:40 | 50.21911 | 11.32005 | 22982 ft | 274 kts | 220° |
| 2026-05-09 12:40 | 50.20428 | 11.30199 | 22542 ft | 273 kts | 220° |
| 2026-05-09 12:40 | 50.18921 | 11.28372 | 22017 ft | 275 kts | 220° |
| 2026-05-09 12:40 | 50.17413 | 11.26547 | 21500 ft | 276 kts | 220° |
| 2026-05-09 12:41 | 50.15964 | 11.24802 | 20947 ft | 249 kts | 220° |
| 2026-05-09 12:41 | 50.14583 | 11.23133 | 20432 ft | 253 kts | 219° |
| 2026-05-09 12:41 | 50.13196 | 11.21460 | 19915 ft | 256 kts | 219° |
| 2026-05-09 12:41 | 50.11782 | 11.19757 | 19406 ft | 258 kts | 220° |
| 2026-05-09 12:42 | 50.10371 | 11.18059 | 18895 ft | 260 kts | 219° |
| 2026-05-09 12:42 | 50.08930 | 11.16325 | 18386 ft | 260 kts | 219° |
| 2026-05-09 12:42 | 50.07527 | 11.14641 | 17883 ft | 240 kts | 219° |
| 2026-05-09 12:42 | 50.06260 | 11.13122 | 17331 ft | 233 kts | 219° |
| 2026-05-09 12:43 | 50.05004 | 11.11616 | 16804 ft | 227 kts | 219° |
| 2026-05-09 12:43 | 50.03739 | 11.10098 | 16305 ft | 232 kts | 220° |
| 2026-05-09 12:43 | 50.02451 | 11.08555 | 15813 ft | 236 kts | 220° |
| 2026-05-09 12:43 | 50.01158 | 11.07006 | 15320 ft | 239 kts | 220° |
| 2026-05-09 12:44 | 49.99845 | 11.05434 | 14825 ft | 241 kts | 220° |
| 2026-05-09 12:44 | 49.98504 | 11.03829 | 14323 ft | 243 kts | 220° |
| 2026-05-09 12:44 | 49.97169 | 11.02233 | 13827 ft | 244 kts | 220° |
| 2026-05-09 12:44 | 49.96010 | 11.00852 | 13268 ft | 208 kts | 220° |
| 2026-05-09 12:45 | 49.94849 | 10.99463 | 12782 ft | 215 kts | 219° |
| 2026-05-09 12:45 | 49.93658 | 10.98042 | 12305 ft | 220 kts | 219° |
| 2026-05-09 12:45 | 49.92449 | 10.96602 | 11926 ft | 219 kts | 219° |
| 2026-05-09 12:45 | 49.91261 | 10.95189 | 11534 ft | 212 kts | 219° |
| 2026-05-09 12:46 | 49.90103 | 10.93809 | 11166 ft | 212 kts | 219° |
| 2026-05-09 12:46 | 49.88932 | 10.92418 | 10793 ft | 212 kts | 219° |
| 2026-05-09 12:46 | 49.87772 | 10.91033 | 10423 ft | 213 kts | 219° |
| 2026-05-09 12:46 | 49.86593 | 10.89629 | 10047 ft | 212 kts | 219° |
| 2026-05-09 12:47 | 49.85424 | 10.88232 | 9672 ft | 212 kts | 219° |
| 2026-05-09 12:47 | 49.84263 | 10.86850 | 9301 ft | 211 kts | 219° |
| 2026-05-09 12:47 | 49.83108 | 10.85478 | 8935 ft | 211 kts | 219° |
| 2026-05-09 12:47 | 49.81955 | 10.84102 | 8567 ft | 211 kts | 219° |
| 2026-05-09 12:48 | 49.80795 | 10.82716 | 8199 ft | 210 kts | 219° |
| 2026-05-09 12:48 | 49.79643 | 10.81330 | 7828 ft | 210 kts | 219° |
| 2026-05-09 12:48 | 49.78482 | 10.79927 | 7453 ft | 210 kts | 219° |
| 2026-05-09 12:48 | 49.77350 | 10.78555 | 7088 ft | 210 kts | 219° |
| 2026-05-09 12:49 | 49.76208 | 10.77160 | 6712 ft | 209 kts | 219° |
| 2026-05-09 12:49 | 49.75057 | 10.75785 | 6328 ft | 209 kts | 213° |
| 2026-05-09 12:49 | 49.73693 | 10.75051 | 5942 ft | 209 kts | 194° |
| 2026-05-09 12:49 | 49.72286 | 10.74521 | 5551 ft | 210 kts | 194° |
| 2026-05-09 12:50 | 49.70873 | 10.73982 | 5153 ft | 210 kts | 194° |
| 2026-05-09 12:50 | 49.69469 | 10.73440 | 4753 ft | 204 kts | 194° |
| 2026-05-09 12:50 | 49.68100 | 10.72907 | 4387 ft | 204 kts | 194° |
| 2026-05-09 12:50 | 49.66727 | 10.72373 | 4058 ft | 203 kts | 194° |
| 2026-05-09 12:51 | 49.65322 | 10.71822 | 3984 ft | 213 kts | 194° |
| 2026-05-09 12:51 | 49.63860 | 10.71246 | 3970 ft | 224 kts | 194° |
| 2026-05-09 12:51 | 49.62338 | 10.70643 | 3960 ft | 222 kts | 194° |
| 2026-05-09 12:51 | 49.60878 | 10.70064 | 3954 ft | 211 kts | 194° |
| 2026-05-09 12:52 | 49.59508 | 10.69520 | 3950 ft | 196 kts | 194° |
| 2026-05-09 12:52 | 49.58235 | 10.69012 | 3950 ft | 184 kts | 194° |
| 2026-05-09 12:52 | 49.57013 | 10.68525 | 3951 ft | 178 kts | 194° |
| 2026-05-09 12:52 | 49.55819 | 10.68505 | 3956 ft | 172 kts | 157° |
| 2026-05-09 12:53 | 49.54800 | 10.69460 | 3975 ft | 169 kts | 144° |
| 2026-05-09 12:53 | 49.53927 | 10.70610 | 3965 ft | 167 kts | 120° |
| 2026-05-09 12:53 | 49.53538 | 10.72261 | 3978 ft | 164 kts | 104° |
| 2026-05-09 12:53 | 49.53273 | 10.73966 | 4001 ft | 158 kts | 101° |
| 2026-05-09 12:54 | 49.53062 | 10.75605 | 3985 ft | 159 kts | 99° |
| 2026-05-09 12:54 | 49.52866 | 10.77322 | 3980 ft | 163 kts | 98° |
| 2026-05-09 12:54 | 49.52683 | 10.79051 | 3964 ft | 162 kts | 98° |
| 2026-05-09 12:54 | 49.52513 | 10.80735 | 3965 ft | 157 kts | 98° |
| 2026-05-09 12:55 | 49.52352 | 10.82387 | 3959 ft | 160 kts | 97° |
| 2026-05-09 12:55 | 49.52188 | 10.84064 | 3771 ft | 154 kts | 97° |
| 2026-05-09 12:55 | 49.52035 | 10.85647 | 3613 ft | 148 kts | 97° |
| 2026-05-09 12:55 | 49.51885 | 10.87208 | 3420 ft | 148 kts | 97° |
| 2026-05-09 12:56 | 49.51732 | 10.88805 | 3223 ft | 154 kts | 97° |
| 2026-05-09 12:56 | 49.51571 | 10.90474 | 3018 ft | 159 kts | 97° |
| 2026-05-09 12:56 | 49.51408 | 10.92146 | 2799 ft | 159 kts | 97° |
| 2026-05-09 12:56 | 49.51247 | 10.93791 | 2577 ft | 153 kts | 97° |
| 2026-05-09 12:57 | 49.51093 | 10.95374 | 2374 ft | 148 kts | 97° |
| 2026-05-09 12:57 | 49.50949 | 10.96821 | 2174 ft | 124 kts | 97° |
| 2026-05-09 12:57 | 49.50831 | 10.98020 | 2007 ft | 105 kts | 96° |
| 2026-05-09 12:57 | 49.50717 | 10.99225 | 1890 ft | 114 kts | 97° |
| 2026-05-09 12:58 | 49.50601 | 11.00398 | 1742 ft | 109 kts | 96° |
| 2026-05-09 12:58 | 49.50491 | 11.01518 | 1613 ft | 106 kts | 96° |
| 2026-05-09 12:58 | 49.50384 | 11.02652 | 1460 ft | 108 kts | 95° |
| 2026-05-09 12:58 | 49.50279 | 11.03796 | 1336 ft | 109 kts | 97° |
| 2026-05-09 12:59 | 49.50159 | 11.04923 | 1184 ft | 108 kts | 97° |
| 2026-05-09 12:59 | 49.50040 | 11.06049 | 1039 ft | 104 kts | 96° |
| 2026-05-09 12:59 | 49.49947 | 11.07026 | 1018 ft | 71 kts | 97° |
| 2026-05-09 12:59 | 49.49896 | 11.07545 | 1021 ft | 27 kts | 99° |
| 2026-05-09 13:00 | 49.49807 | 11.07665 | 1021 ft | 15 kts | 154° |
| 2026-05-09 13:00 | 49.49743 | 11.07712 | 1021 ft | 9 kts | 153° |
| 2026-05-09 13:00 | 49.49731 | 11.07722 | 1021 ft | 0 kts | 150° |
| 2026-05-09 13:01 | 49.49730 | 11.07723 | 1021 ft | 0 kts | 150° |
| 2026-05-09 13:01 | 49.49714 | 11.07736 | 1021 ft | 8 kts | 150° |
| 2026-05-09 13:01 | 49.49685 | 11.07760 | 1021 ft | 0 kts | 160° |
| 2026-05-09 13:02 | 49.49635 | 11.07770 | 1021 ft | 11 kts | 183° |
| 2026-05-09 13:02 | 49.49593 | 11.07667 | 1019 ft | 17 kts | 281° |
| 2026-05-09 13:02 | 49.49617 | 11.07456 | 1015 ft | 17 kts | 278° |
| 2026-05-09 13:02 | 49.49632 | 11.07288 | 1015 ft | 15 kts | 279° |
| 2026-05-09 13:03 | 49.49592 | 11.07196 | 1015 ft | 13 kts | 224° |
| 2026-05-09 13:03 | 49.49591 | 11.07083 | 1012 ft | 8 kts | 276° |
| 2026-05-09 13:03 | 49.49564 | 11.07044 | 1012 ft | 3 kts | 185° |